Lagoa Vermelha, Brazil
Current Conditions -  °F | °C
As of 7:00 PM on Monday 22 Dec 2014 (Local Time) from SBPF Reporting Station
Scattered Clouds Scattered Clouds  
Wind Chill: 68°   Ceiling: Unl
Heat Index: 68°   Visibility: 6mi
Dew Point: 59°   Wind: 23mph
Humidity: 73%   Direction: 140°SE
Pressure: 30"   Gusts: NA
Location:  28.21°S, 51.53°W
Report Text: SBPF 222100Z 14020KT 9999 FEW030 SCT040 20/15 Q1016
Loading
Personal Weather Stations






























Interactive Weather Map New forecast layout! Learn more

10-Day Weather Forecast

Advertisements
Track Severe Weather on mobile